createdAt,value
2019-05-13T00:00:28.128Z,83.74
2019-05-13T00:02:59.312Z,83.34
2019-05-13T00:05:30.309Z,83.61
2019-05-13T00:08:03.240Z,83.87
2019-05-13T00:10:35.028Z,83.38
2019-05-13T00:13:06.313Z,82.81
2019-05-13T00:15:37.566Z,83.11
2019-05-13T00:18:08.843Z,82.38
2019-05-13T00:20:39.940Z,83.07
2019-05-13T00:23:10.931Z,83.55
2019-05-13T00:25:44.204Z,82.76
2019-05-13T00:28:14.766Z,83.02
2019-05-13T00:30:46.107Z,82.22
2019-05-13T00:33:17.068Z,83.00
2019-05-13T00:35:48.078Z,84.07
2019-05-13T00:38:19.080Z,83.83
2019-05-13T00:40:50.129Z,83.64
2019-05-13T00:43:21.110Z,82.88
2019-05-13T00:45:53.400Z,84.06
2019-05-13T00:48:25.633Z,85.80
2019-05-13T00:50:56.685Z,86.65
2019-05-13T00:53:27.689Z,86.16
2019-05-13T00:55:58.703Z,85.23
2019-05-13T00:58:29.778Z,84.67
2019-05-13T01:01:00.795Z,87.10
2019-05-13T01:03:33.837Z,88.47
2019-05-13T01:06:04.553Z,87.57
2019-05-13T01:08:35.665Z,86.71
2019-05-13T01:11:06.697Z,85.48
2019-05-13T01:13:37.682Z,86.71
2019-05-13T01:16:08.670Z,85.56
2019-05-13T01:18:39.656Z,84.59
2019-05-13T01:21:10.700Z,84.75
2019-05-13T01:23:43.864Z,84.33
2019-05-13T01:26:14.727Z,84.09
2019-05-13T01:28:45.707Z,84.32
2019-05-13T01:31:16.676Z,86.02
2019-05-13T01:33:47.655Z,87.10
2019-05-13T01:36:18.646Z,86.08
2019-05-13T01:38:49.761Z,85.48
2019-05-13T01:41:20.810Z,84.53
2019-05-13T01:43:54.207Z,84.00
2019-05-13T01:46:24.585Z,84.20
2019-05-13T01:48:55.641Z,84.80
2019-05-13T01:51:26.703Z,86.18
2019-05-13T01:53:58.898Z,85.50
2019-05-13T01:56:30.018Z,85.62
2019-05-13T01:59:03.448Z,85.95
2019-05-13T02:01:33.916Z,86.63
2019-05-13T02:04:05.302Z,85.37
2019-05-13T02:06:36.313Z,84.33
2019-05-13T02:09:08.292Z,85.31
2019-05-13T02:11:39.363Z,84.87
2019-05-13T02:14:10.553Z,85.63
2019-05-13T02:16:44.378Z,84.26
2019-05-13T02:19:14.476Z,84.53
2019-05-13T02:21:45.603Z,85.22
2019-05-13T02:24:16.920Z,85.02
2019-05-13T02:26:47.954Z,84.96
2019-05-13T02:29:19.065Z,85.28
2019-05-13T02:31:55.236Z,84.29
2019-05-13T02:34:23.398Z,84.47
2019-05-13T02:36:55.405Z,85.56
2019-05-13T02:39:26.412Z,86.62
2019-05-13T02:41:57.567Z,86.37
2019-05-13T02:44:28.526Z,85.81
2019-05-13T02:47:03.002Z,85.00
2019-05-13T02:49:32.895Z,84.72
2019-05-13T02:52:04.119Z,85.10
2019-05-13T02:54:35.095Z,84.63
2019-05-13T02:57:06.345Z,84.15
2019-05-13T02:59:37.412Z,84.02
2019-05-13T03:02:08.465Z,83.88
2019-05-13T03:04:43.069Z,84.06
2019-05-13T03:07:12.178Z,83.77
2019-05-13T03:09:43.187Z,83.09
2019-05-13T03:12:15.420Z,83.83
2019-05-13T03:14:48.435Z,83.49
2019-05-13T03:17:34.594Z,83.19
2019-05-13T03:20:05.672Z,82.89
2019-05-13T03:22:36.833Z,83.17
2019-05-13T03:25:08.205Z,83.12
2019-05-13T03:27:42.530Z,83.95
2019-05-13T03:30:16.674Z,83.35
2019-05-13T03:32:52.832Z,85.02
2019-05-13T03:35:17.552Z,85.11
2019-05-13T03:37:48.735Z,84.72
2019-05-13T03:40:23.239Z,84.23
2019-05-13T03:42:53.903Z,84.03
2019-05-13T03:45:26.265Z,83.83
2019-05-13T03:48:03.698Z,83.77
2019-05-13T03:50:34.549Z,83.82
2019-05-13T03:53:05.121Z,83.89
2019-05-13T03:55:36.578Z,83.69
2019-05-13T03:58:10.171Z,82.61
2019-05-13T04:00:42.765Z,82.80
2019-05-13T04:03:14.430Z,85.60
2019-05-13T04:05:45.479Z,84.16
2019-05-13T04:08:16.849Z,85.04
2019-05-13T04:10:47.985Z,85.43
2019-05-13T04:13:22.993Z,84.22
2019-05-13T04:15:52.934Z,85.00
2019-05-13T04:18:24.495Z,87.06
2019-05-13T04:20:55.589Z,85.64
2019-05-13T04:23:26.966Z,85.63
2019-05-13T04:25:58.529Z,84.01
2019-05-13T04:28:32.881Z,86.45
2019-05-13T04:31:03.796Z,87.58
2019-05-13T04:33:35.220Z,87.96
2019-05-13T04:36:06.409Z,86.09
2019-05-13T04:38:37.889Z,85.44
2019-05-13T04:41:11.164Z,84.80
2019-05-13T04:43:43.457Z,85.89
2019-05-13T04:46:14.911Z,87.40
2019-05-13T04:48:45.964Z,85.84
2019-05-13T04:51:17.159Z,85.64
2019-05-13T04:53:53.331Z,86.39
2019-05-13T04:56:22.409Z,84.89
2019-05-13T04:58:53.947Z,84.16
2019-05-13T05:02:07.735Z,86.45
2019-05-13T05:04:52.837Z,86.22
2019-05-13T05:08:06.340Z,83.53
2019-05-13T05:11:05.182Z,84.76
2019-05-13T05:14:06.162Z,86.14
2019-05-13T05:17:39.171Z,84.68
2019-05-13T05:20:46.976Z,86.67
2019-05-13T05:24:02.695Z,87.12
2019-05-13T05:27:31.651Z,86.39
2019-05-13T05:31:02.340Z,84.90
2019-05-13T05:34:32.359Z,86.16
2019-05-13T05:38:01.542Z,85.66
2019-05-13T05:40:34.989Z,86.17
2019-05-13T05:43:07.643Z,85.63
2019-05-13T05:45:41.327Z,84.61
2019-05-13T05:48:16.915Z,83.47
2019-05-13T05:50:51.458Z,82.20
2019-05-13T05:53:24.510Z,82.98
2019-05-13T05:55:57.467Z,83.94
2019-05-13T05:58:31.517Z,82.93
2019-05-13T06:01:04.548Z,84.02
2019-05-13T06:03:37.684Z,81.67
2019-05-13T06:06:09.151Z,83.99
2019-05-13T06:08:41.343Z,83.43
2019-05-13T06:11:13.207Z,84.07
2019-05-13T06:13:44.283Z,83.37
2019-05-13T06:16:15.431Z,83.97
2019-05-13T06:18:46.651Z,83.44
2019-05-13T06:21:17.708Z,80.74
2019-05-13T06:23:48.780Z,82.20
2019-05-13T06:26:23.373Z,80.35
2019-05-13T06:28:52.717Z,81.93
2019-05-13T06:31:23.996Z,78.34
2019-05-13T06:33:55.211Z,79.89
2019-05-13T06:36:27.590Z,80.50
2019-05-13T06:38:58.722Z,78.30
2019-05-13T06:41:32.134Z,78.80
2019-05-13T06:44:02.831Z,76.71
2019-05-13T06:46:34.071Z,72.40
2019-05-13T06:49:05.204Z,74.08
2019-05-13T06:51:36.403Z,72.79
2019-05-13T06:54:11.120Z,73.24
2019-05-13T06:56:42.821Z,75.09
2019-05-13T06:59:14.217Z,72.44
2019-05-13T07:01:45.308Z,74.17
2019-05-13T07:04:16.543Z,69.69
2019-05-13T07:06:47.736Z,68.17
2019-05-13T07:09:21.356Z,64.51
2019-05-13T07:11:51.936Z,63.08
2019-05-13T07:14:23.173Z,67.38
2019-05-13T07:16:54.256Z,64.75
2019-05-13T07:19:25.392Z,63.23
2019-05-13T07:21:56.443Z,60.76
2019-05-13T07:24:27.477Z,61.70
2019-05-13T07:26:58.523Z,57.61
2019-05-13T07:29:32.144Z,61.94
2019-05-13T07:32:03.570Z,58.44
2019-05-13T07:34:34.666Z,57.11
2019-05-13T07:37:05.891Z,54.42
2019-05-13T07:39:38.781Z,53.57
2019-05-13T07:42:12.124Z,52.86
2019-05-13T07:44:42.701Z,52.51
2019-05-13T07:47:15.976Z,56.11
2019-05-13T07:49:46.756Z,55.23
2019-05-13T07:52:17.750Z,56.57
2019-05-13T07:54:48.814Z,56.34
2019-05-13T07:57:21.483Z,56.11
2019-05-13T07:59:52.628Z,56.11
2019-05-13T08:02:24.158Z,55.43
2019-05-13T08:04:55.458Z,54.73
2019-05-13T08:07:26.604Z,57.81
2019-05-13T08:10:00.229Z,58.85
2019-05-13T08:12:31.972Z,60.87
2019-05-13T08:15:03.487Z,59.67
2019-05-13T08:17:34.731Z,59.15
2019-05-13T08:20:06.542Z,60.69
2019-05-13T08:22:37.571Z,61.18
2019-05-13T08:25:09.028Z,59.46
2019-05-13T08:27:42.183Z,64.60
2019-05-13T08:30:18.086Z,59.24
2019-05-13T08:32:48.761Z,59.53
2019-05-13T08:35:22.415Z,65.06
2019-05-13T08:37:52.844Z,60.53
2019-05-13T08:40:24.008Z,61.20
2019-05-13T08:42:55.307Z,60.32
2019-05-13T08:45:26.668Z,61.64
2019-05-13T08:47:58.257Z,62.57
2019-05-13T08:50:32.207Z,57.93
2019-05-13T08:53:02.448Z,57.49
2019-05-13T08:55:33.585Z,62.89
2019-05-13T08:58:04.742Z,60.68
2019-05-13T09:00:53.084Z,60.12
2019-05-13T09:03:24.925Z,59.50
2019-05-13T09:05:56.393Z,61.01
2019-05-13T09:08:27.828Z,60.90
2019-05-13T09:11:01.399Z,58.65
2019-05-13T09:13:33.044Z,57.24
2019-05-13T09:16:04.447Z,57.11
2019-05-13T09:18:36.420Z,58.93
2019-05-13T09:21:07.435Z,61.22
2019-05-13T09:23:38.519Z,59.52
2019-05-13T09:26:11.637Z,58.82
2019-05-13T09:28:42.425Z,56.91
2019-05-13T09:31:13.426Z,56.88
2019-05-13T09:33:44.447Z,57.37
2019-05-13T09:36:15.518Z,60.59
2019-05-13T09:38:46.695Z,54.15
2019-05-13T09:41:17.845Z,57.78
2019-05-13T09:43:51.220Z,56.00
2019-05-13T09:46:22.586Z,49.96
2019-05-13T09:48:53.950Z,50.40
2019-05-13T09:51:25.160Z,51.55
2019-05-13T09:53:56.346Z,53.83
2019-05-13T09:56:27.432Z,51.85
2019-05-13T09:58:58.673Z,53.83
2019-05-13T10:01:32.006Z,56.50
2019-05-13T10:04:03.217Z,54.59
2019-05-13T10:06:35.654Z,52.75
2019-05-13T10:09:08.495Z,49.73
2019-05-13T10:11:39.560Z,51.48
2019-05-13T10:14:11.642Z,55.42
2019-05-13T10:16:43.184Z,56.87
2019-05-13T10:19:14.272Z,56.15
2019-05-13T10:21:45.522Z,56.18
2019-05-13T10:24:16.972Z,53.21
2019-05-13T10:26:51.348Z,51.89
2019-05-13T10:29:22.421Z,53.60
2019-05-13T10:31:54.422Z,50.90
2019-05-13T10:34:25.591Z,52.73
2019-05-13T10:36:56.955Z,55.08
2019-05-13T10:39:28.137Z,52.88
2019-05-13T10:41:59.332Z,54.15
2019-05-13T10:44:30.426Z,54.19
2019-05-13T10:47:02.468Z,51.92
2019-05-13T10:49:34.044Z,54.21
2019-05-13T10:52:05.193Z,54.74
2019-05-13T10:54:36.601Z,58.56
2019-05-13T10:57:07.795Z,53.03
2019-05-13T10:59:38.878Z,54.27
2019-05-13T11:02:13.279Z,51.16
2019-05-13T11:04:43.108Z,55.33
2019-05-13T11:07:14.271Z,51.24
2019-05-13T11:09:45.370Z,53.11
2019-05-13T11:12:16.443Z,56.63
2019-05-13T11:14:51.452Z,53.39
2019-05-13T11:17:25.657Z,53.08
2019-05-13T11:19:53.303Z,50.69
2019-05-13T11:22:24.294Z,50.35
2019-05-13T11:24:55.403Z,49.71
2019-05-13T11:27:26.491Z,51.08
2019-05-13T11:29:57.537Z,53.33
2019-05-13T11:32:31.583Z,51.15
2019-05-13T11:35:02.101Z,51.07
2019-05-13T11:37:34.382Z,50.99
2019-05-13T11:40:05.892Z,53.75
2019-05-13T11:42:37.024Z,53.33
2019-05-13T11:45:11.511Z,53.55
2019-05-13T11:47:41.706Z,51.33
2019-05-13T11:50:14.644Z,54.53
2019-05-13T11:52:45.748Z,51.08
2019-05-13T11:55:18.106Z,51.37
2019-05-13T11:57:49.186Z,48.89
2019-05-13T12:01:02.662Z,50.43
2019-05-13T12:03:33.628Z,53.22
2019-05-13T12:06:04.886Z,50.29
2019-05-13T12:08:35.985Z,52.64
2019-05-13T12:11:07.013Z,52.17
2019-05-13T12:13:38.189Z,50.08
2019-05-13T12:16:12.844Z,50.02
2019-05-13T12:18:43.813Z,49.05
2019-05-13T12:21:15.392Z,47.47
2019-05-13T12:23:46.867Z,47.39
2019-05-13T12:26:18.052Z,49.35
2019-05-13T12:28:53.217Z,46.54
2019-05-13T12:31:22.432Z,45.78
2019-05-13T12:33:53.476Z,44.55
2019-05-13T12:36:24.685Z,46.77
2019-05-13T12:38:56.793Z,46.67
2019-05-13T12:41:27.916Z,45.40
2019-05-13T12:44:01.607Z,48.09
2019-05-13T12:46:31.846Z,44.92
2019-05-13T12:49:04.045Z,47.21
2019-05-13T12:51:35.421Z,45.90
2019-05-13T12:54:06.771Z,48.79
2019-05-13T12:56:37.924Z,44.79
2019-05-13T12:59:12.893Z,45.03
2019-05-13T13:01:41.842Z,47.01
2019-05-13T13:04:13.263Z,45.23
2019-05-13T13:06:45.681Z,46.34
2019-05-13T13:09:17.136Z,44.22
2019-05-13T13:11:53.954Z,45.61
2019-05-13T13:14:22.603Z,50.25
2019-05-13T13:16:54.350Z,44.60
2019-05-13T13:19:25.674Z,43.83
2019-05-13T13:22:03.298Z,46.37
2019-05-13T13:24:31.743Z,44.81
2019-05-13T13:27:02.429Z,45.17
2019-05-13T13:29:34.196Z,43.24
2019-05-13T13:32:05.490Z,41.34
2019-05-13T13:34:36.698Z,39.77
2019-05-13T13:37:07.707Z,42.68
2019-05-13T13:39:42.251Z,42.02
2019-05-13T13:42:13.162Z,43.08
2019-05-13T13:44:44.756Z,43.48
2019-05-13T13:47:15.878Z,44.77
2019-05-13T13:49:47.163Z,43.19
2019-05-13T13:52:18.710Z,43.67
2019-05-13T13:54:58.921Z,43.94
2019-05-13T13:57:25.755Z,44.48
2019-05-13T14:00:20.948Z,48.09
2019-05-13T14:02:28.279Z,50.43
2019-05-13T14:05:04.923Z,46.78
2019-05-13T14:07:37.830Z,47.58
2019-05-13T14:10:07.129Z,48.63
2019-05-13T14:12:38.454Z,48.18
2019-05-13T14:15:09.749Z,46.23
2019-05-13T14:17:41.584Z,47.78
2019-05-13T14:20:13.410Z,48.65
2019-05-13T14:22:44.602Z,45.78
2019-05-13T14:25:16.178Z,43.48
2019-05-13T14:27:47.275Z,44.85
2019-05-13T14:30:18.814Z,41.63
2019-05-13T14:32:51.938Z,41.78
2019-05-13T14:35:22.968Z,41.07
2019-05-13T14:37:54.190Z,42.23
2019-05-13T14:40:25.423Z,39.86
2019-05-13T14:42:56.485Z,41.24
2019-05-13T14:45:27.950Z,40.25
2019-05-13T14:47:59.089Z,41.75
2019-05-13T14:50:31.934Z,42.10
2019-05-13T14:53:03.056Z,42.37
2019-05-13T14:55:34.051Z,42.98
2019-05-13T14:58:08.784Z,43.72
2019-05-13T15:00:42.139Z,45.65
2019-05-13T15:03:13.251Z,45.73
2019-05-13T15:05:44.351Z,44.93
2019-05-13T15:08:15.438Z,44.30
2019-05-13T15:10:46.612Z,43.52
2019-05-13T15:13:17.763Z,42.59
2019-05-13T15:15:51.507Z,40.25
2019-05-13T15:18:22.441Z,38.83
2019-05-13T15:20:53.694Z,39.10
2019-05-13T15:23:25.335Z,38.84
2019-05-13T15:26:44.654Z,41.77
2019-05-13T15:29:15.915Z,40.36
2019-05-13T15:31:46.971Z,41.70
2019-05-13T15:34:18.525Z,40.31
2019-05-13T15:36:50.945Z,41.29
2019-05-13T15:39:22.715Z,39.71
2019-05-13T15:41:53.854Z,44.36
2019-05-13T15:44:24.994Z,41.54
2019-05-13T15:46:59.115Z,39.95
2019-05-13T15:49:29.331Z,40.98
2019-05-13T15:52:01.909Z,41.56
2019-05-13T15:54:34.238Z,41.83
2019-05-13T15:57:05.392Z,42.96
2019-05-13T15:59:36.630Z,43.52
2019-05-13T16:02:07.811Z,41.25
2019-05-13T16:04:49.964Z,40.61
2019-05-13T16:07:12.433Z,43.40
2019-05-13T16:09:43.655Z,41.69
2019-05-13T16:12:14.799Z,43.21
2019-05-13T16:14:45.794Z,41.84
2019-05-13T16:17:16.948Z,40.54
2019-05-13T16:19:48.121Z,38.27
2019-05-13T16:22:19.202Z,36.80
2019-05-13T16:24:52.121Z,41.44
2019-05-13T16:27:24.436Z,37.50
2019-05-13T16:29:55.458Z,40.43
2019-05-13T16:32:26.572Z,42.02
2019-05-13T16:34:57.684Z,39.13
2019-05-13T16:37:31.234Z,41.73
2019-05-13T16:40:01.587Z,39.61
2019-05-13T16:45:18.409Z,41.73
2019-05-13T16:48:12.337Z,42.86
2019-05-13T16:50:43.610Z,41.44
2019-05-13T16:53:14.716Z,39.77
2019-05-13T16:55:45.798Z,44.51
2019-05-13T16:58:16.993Z,39.86
2019-05-13T17:00:48.636Z,41.97
2019-05-13T17:03:21.191Z,44.35
2019-05-13T17:05:52.571Z,42.90
2019-05-13T17:08:23.683Z,41.48
2019-05-13T17:10:54.848Z,45.22
2019-05-13T17:13:26.103Z,38.61
2019-05-13T17:15:57.225Z,38.88
2019-05-13T17:18:28.420Z,36.86
2019-05-13T17:21:01.470Z,39.48
2019-05-13T17:23:32.896Z,35.13
2019-05-13T17:26:04.096Z,35.21
2019-05-13T17:28:35.123Z,35.23
2019-05-13T17:31:06.262Z,35.98
2019-05-13T17:33:37.594Z,38.17
2019-05-13T17:36:08.641Z,37.16
2019-05-13T17:38:39.916Z,40.50
2019-05-13T17:41:12.192Z,41.31
2019-05-13T17:43:43.374Z,43.50
2019-05-13T17:46:14.533Z,40.23
2019-05-13T17:48:45.594Z,42.63
2019-05-13T17:51:16.790Z,37.06
2019-05-13T17:53:47.921Z,41.80
2019-05-13T17:56:18.983Z,41.29
2019-05-13T17:58:49.975Z,43.06
2019-05-13T18:01:21.294Z,40.33
2019-05-13T18:03:52.322Z,39.84
2019-05-13T18:06:23.345Z,41.99
2019-05-13T18:08:54.563Z,41.85
2019-05-13T18:11:25.665Z,42.67
2019-05-13T18:13:56.626Z,39.94
2019-05-13T18:16:27.716Z,43.23
2019-05-13T18:18:58.890Z,44.71
2019-05-13T18:21:31.982Z,45.80
2019-05-13T18:24:02.767Z,47.24
2019-05-13T18:26:34.164Z,46.74
2019-05-13T18:29:05.261Z,44.98
2019-05-13T18:31:36.418Z,45.72
2019-05-13T18:34:07.610Z,46.92
2019-05-13T18:36:38.763Z,48.14
2019-05-13T18:39:12.397Z,49.88
2019-05-13T18:41:43.336Z,49.80
2019-05-13T18:44:14.533Z,49.46
2019-05-13T18:46:45.630Z,50.40
2019-05-13T18:49:16.830Z,51.28
2019-05-13T18:51:48.048Z,49.14
2019-05-13T18:54:19.055Z,51.61
2019-05-13T18:56:52.190Z,53.11
2019-05-13T18:59:23.126Z,53.44
2019-05-13T19:01:54.150Z,53.73
2019-05-13T19:04:25.117Z,54.32
2019-05-13T19:06:56.125Z,54.06
2019-05-13T19:09:27.115Z,55.34
2019-05-13T19:11:58.211Z,55.47
2019-05-13T19:14:31.603Z,55.77
2019-05-13T19:17:02.113Z,55.65
2019-05-13T19:19:33.109Z,56.14
2019-05-13T19:22:04.193Z,56.12
2019-05-13T19:24:35.178Z,55.81
2019-05-13T19:27:06.548Z,57.34
2019-05-13T19:29:37.520Z,55.98
2019-05-13T19:32:08.690Z,56.01
2019-05-13T19:34:42.138Z,56.64
2019-05-13T19:37:12.872Z,56.94
2019-05-13T19:39:43.922Z,57.19
2019-05-13T19:42:15.063Z,59.17
2019-05-13T19:44:46.314Z,61.79
2019-05-13T19:47:17.353Z,61.73
2019-05-13T19:49:48.324Z,59.25
2019-05-13T19:52:21.390Z,60.91
2019-05-13T19:54:52.450Z,61.50
2019-05-13T19:57:24.581Z,61.37
2019-05-13T19:59:55.585Z,61.49
2019-05-13T20:02:26.571Z,61.49
2019-05-13T20:04:57.549Z,63.39
2019-05-13T20:07:28.530Z,63.75
2019-05-13T20:10:02.604Z,63.69
2019-05-13T20:12:32.436Z,63.27
2019-05-13T20:15:03.910Z,62.60
2019-05-13T20:17:35.201Z,63.48
2019-05-13T20:20:06.978Z,63.89
2019-05-13T20:22:41.952Z,64.63
2019-05-13T20:25:13.155Z,65.08
2019-05-13T20:27:45.438Z,65.69
2019-05-13T20:30:16.793Z,66.37
2019-05-13T20:32:47.844Z,65.87
2019-05-13T20:35:18.919Z,66.39
2019-05-13T20:37:51.561Z,66.82
2019-05-13T20:40:22.663Z,68.06
2019-05-13T20:42:53.642Z,67.96
2019-05-13T20:45:24.720Z,67.97
2019-05-13T20:47:55.724Z,67.81
2019-05-13T20:50:26.715Z,67.41
2019-05-13T20:52:57.762Z,67.74
2019-05-13T20:55:28.775Z,71.18
2019-05-13T20:58:01.448Z,71.47
2019-05-13T21:00:32.706Z,72.56
2019-05-13T21:03:03.873Z,71.40
2019-05-13T21:05:36.545Z,70.94
2019-05-13T21:08:07.547Z,69.36
2019-05-13T21:10:38.639Z,69.47
2019-05-13T21:13:12.097Z,69.04
2019-05-13T21:15:42.708Z,69.06
2019-05-13T21:18:14.770Z,69.89
2019-05-13T21:20:46.120Z,69.91
2019-05-13T21:23:17.493Z,69.33
2019-05-13T21:25:48.459Z,69.98
2019-05-13T21:28:22.160Z,70.03
2019-05-13T21:30:54.915Z,69.94
2019-05-13T21:33:25.943Z,70.74
2019-05-13T21:35:56.917Z,70.06
2019-05-13T21:38:28.000Z,71.95
2019-05-13T21:40:58.966Z,71.28
2019-05-13T21:43:32.162Z,63.54
2019-05-13T21:46:02.665Z,65.79
2019-05-13T21:48:33.769Z,65.24
2019-05-13T21:51:04.811Z,64.99
2019-05-13T21:53:35.794Z,62.59
2019-05-13T21:56:06.763Z,60.58
2019-05-13T21:58:37.926Z,59.37
2019-05-13T22:01:08.909Z,56.57
2019-05-13T22:03:41.998Z,55.80
2019-05-13T22:06:12.851Z,56.83
2019-05-13T22:08:43.857Z,56.04
2019-05-13T22:11:15.147Z,55.60
2019-05-13T22:13:46.121Z,55.46
2019-05-13T22:16:17.147Z,56.12
2019-05-13T22:18:48.169Z,54.68
2019-05-13T22:21:19.217Z,54.64
2019-05-13T22:23:51.773Z,53.22
2019-05-13T22:26:23.994Z,55.61
2019-05-13T22:28:54.985Z,55.86
2019-05-13T22:31:26.079Z,54.81
2019-05-13T22:33:57.072Z,54.54
2019-05-13T22:36:28.181Z,55.46
2019-05-13T22:38:59.209Z,55.05
2019-05-13T22:41:31.299Z,54.70
2019-05-13T22:44:02.564Z,56.16
2019-05-13T22:46:33.601Z,53.86
2019-05-13T22:49:04.617Z,54.85
2019-05-13T22:51:35.633Z,55.26
2019-05-13T22:54:06.725Z,54.56
2019-05-13T22:56:37.996Z,57.57
2019-05-13T22:59:08.976Z,55.18
2019-05-13T23:01:41.842Z,55.74
2019-05-13T23:04:13.159Z,55.82
2019-05-13T23:06:44.139Z,57.17
2019-05-13T23:09:15.110Z,56.96
2019-05-13T23:11:46.066Z,55.78
2019-05-13T23:14:17.050Z,56.17
2019-05-13T23:16:48.056Z,55.48
2019-05-13T23:19:21.528Z,56.00
2019-05-13T23:21:52.090Z,57.52
2019-05-13T23:24:23.330Z,56.67
2019-05-13T23:26:54.458Z,57.72
2019-05-13T23:29:25.452Z,58.40
2019-05-13T23:31:56.442Z,56.91
2019-05-13T23:34:27.443Z,55.92
2019-05-13T23:36:58.453Z,57.04
2019-05-13T23:39:29.566Z,56.68
2019-05-13T23:42:01.392Z,57.55
2019-05-13T23:44:32.614Z,58.83
2019-05-13T23:47:04.964Z,59.17
2019-05-13T23:49:35.987Z,59.04
2019-05-13T23:52:08.093Z,60.58
2019-05-13T23:54:39.173Z,61.38
2019-05-13T23:57:11.796Z,62.74
2019-05-13T23:59:44.322Z,61.35
